createdAt,value
2022-12-22T00:01:50.230Z,10.95
2022-12-22T00:04:17.727Z,11.05
2022-12-22T00:06:44.850Z,11.07
2022-12-22T00:09:11.787Z,11.04
2022-12-22T00:11:39.293Z,11.10
2022-12-22T00:14:08.822Z,11.11
2022-12-22T00:16:38.543Z,11.03
2022-12-22T00:19:13.733Z,11.00
2022-12-22T00:21:40.893Z,10.96
2022-12-22T00:24:08.525Z,11.03
2022-12-22T00:26:36.481Z,11.01
2022-12-22T00:29:04.238Z,10.99
2022-12-22T00:31:31.347Z,11.05
2022-12-22T00:33:59.967Z,10.99
2022-12-22T00:36:28.065Z,10.98
2022-12-22T00:38:54.916Z,10.94
2022-12-22T00:41:21.750Z,10.90
2022-12-22T00:43:48.790Z,10.91
2022-12-22T00:46:20.824Z,10.88
2022-12-22T00:48:49.326Z,10.83
2022-12-22T00:51:18.984Z,10.81
2022-12-22T00:53:46.004Z,10.76
2022-12-22T00:56:12.882Z,10.77
2022-12-22T00:58:39.825Z,10.75
2022-12-22T01:01:06.925Z,10.73
2022-12-22T01:03:33.758Z,10.72
2022-12-22T01:06:03.285Z,10.66
2022-12-22T01:08:32.443Z,10.66
2022-12-22T01:10:59.471Z,10.57
2022-12-22T01:13:27.584Z,10.55
2022-12-22T01:15:54.420Z,10.57
2022-12-22T01:18:21.447Z,10.54
2022-12-22T01:20:48.420Z,10.53
2022-12-22T01:23:15.253Z,10.52
2022-12-22T01:25:43.584Z,10.51
2022-12-22T01:28:14.901Z,10.46
2022-12-22T01:30:42.663Z,10.48
2022-12-22T01:33:12.860Z,10.53
2022-12-22T01:35:40.312Z,10.55
2022-12-22T01:38:07.353Z,10.47
2022-12-22T01:40:34.407Z,10.37
2022-12-22T01:43:02.693Z,10.34
2022-12-22T01:45:35.363Z,10.35
2022-12-22T01:48:02.192Z,10.39
2022-12-22T01:50:36.540Z,10.48
2022-12-22T01:53:08.311Z,10.45
2022-12-22T01:55:35.172Z,10.42
2022-12-22T01:58:04.765Z,10.49
2022-12-22T02:00:31.791Z,10.49
2022-12-22T02:03:01.059Z,10.42
2022-12-22T02:05:29.275Z,10.31
2022-12-22T02:08:13.956Z,10.29
2022-12-22T02:11:04.904Z,10.34
2022-12-22T02:14:03.641Z,10.34
2022-12-22T02:16:44.798Z,10.37
2022-12-22T02:19:29.905Z,10.38
2022-12-22T02:22:09.953Z,10.46
2022-12-22T02:24:46.024Z,10.53
2022-12-22T02:27:16.400Z,10.54
2022-12-22T02:29:51.748Z,10.55
2022-12-22T02:32:18.657Z,10.51
2022-12-22T02:34:45.455Z,10.51
2022-12-22T02:37:25.400Z,10.48
2022-12-22T02:40:02.758Z,10.52
2022-12-22T02:42:39.603Z,10.52
2022-12-22T02:45:24.525Z,10.56
2022-12-22T02:48:04.138Z,10.56
2022-12-22T02:50:40.352Z,10.58
2022-12-22T02:53:09.649Z,10.60
2022-12-22T02:55:36.593Z,10.61
2022-12-22T02:58:05.215Z,10.63
2022-12-22T03:00:32.285Z,10.68
2022-12-22T03:02:59.604Z,10.67
2022-12-22T03:05:26.667Z,10.66
2022-12-22T03:07:54.683Z,10.64
2022-12-22T03:10:21.655Z,10.61
2022-12-22T03:12:48.412Z,10.54
2022-12-22T03:15:17.017Z,10.57
2022-12-22T03:17:43.788Z,10.56
2022-12-22T03:20:11.009Z,10.60
2022-12-22T03:22:37.989Z,10.60
2022-12-22T03:25:06.291Z,10.57
2022-12-22T03:27:33.251Z,10.66
2022-12-22T03:30:00.093Z,10.68
2022-12-22T03:32:28.299Z,10.67
2022-12-22T03:34:55.289Z,10.77
2022-12-22T03:37:22.069Z,10.74
2022-12-22T03:39:49.125Z,10.74
2022-12-22T03:42:15.913Z,10.75
2022-12-22T03:44:42.697Z,10.79
2022-12-22T03:47:09.490Z,10.79
2022-12-22T03:49:37.679Z,10.83
2022-12-22T03:52:04.623Z,10.86
2022-12-22T03:54:31.607Z,10.81
2022-12-22T03:56:58.668Z,10.87
2022-12-22T03:59:25.393Z,10.88
2022-12-22T04:01:54.839Z,10.89
2022-12-22T04:04:25.431Z,10.88
2022-12-22T04:06:54.851Z,10.94
2022-12-22T04:09:21.625Z,10.89
2022-12-22T04:11:48.632Z,10.87
2022-12-22T04:14:15.464Z,10.89
2022-12-22T04:16:42.730Z,10.87
2022-12-22T04:19:09.773Z,10.92
2022-12-22T04:21:37.432Z,10.91
2022-12-22T04:24:06.921Z,11.04
2022-12-22T04:26:34.204Z,11.04
2022-12-22T04:29:01.025Z,10.97
2022-12-22T04:31:27.889Z,10.95
2022-12-22T04:33:55.102Z,11.07
2022-12-22T04:36:21.816Z,11.04
2022-12-22T04:38:48.813Z,11.04
2022-12-22T04:41:16.896Z,10.98
2022-12-22T04:43:43.666Z,10.91
2022-12-22T04:46:10.688Z,10.89
2022-12-22T04:48:38.033Z,10.91
2022-12-22T04:51:05.699Z,10.88
2022-12-22T04:53:33.322Z,10.82
2022-12-22T04:56:03.827Z,10.76
2022-12-22T04:58:33.016Z,10.89
2022-12-22T05:01:09.748Z,10.90
2022-12-22T05:03:36.633Z,10.68
2022-12-22T05:06:04.187Z,10.40
2022-12-22T05:08:31.463Z,10.25
2022-12-22T05:10:58.196Z,10.21
2022-12-22T05:13:25.656Z,10.22
2022-12-22T05:15:53.859Z,10.18
2022-12-22T05:18:20.864Z,10.15
2022-12-22T05:20:47.892Z,10.22
2022-12-22T05:23:14.848Z,10.29
2022-12-22T05:25:41.773Z,10.41
2022-12-22T05:28:08.544Z,10.47
2022-12-22T05:30:35.452Z,10.49
2022-12-22T05:33:03.669Z,10.55
2022-12-22T05:35:30.683Z,10.56
2022-12-22T05:37:57.433Z,10.62
2022-12-22T05:40:24.992Z,10.62
2022-12-22T05:42:51.696Z,10.61
2022-12-22T05:45:20.767Z,10.58
2022-12-22T05:47:50.951Z,10.65
2022-12-22T05:50:23.741Z,10.60
2022-12-22T05:52:58.763Z,10.62
2022-12-22T05:55:25.984Z,10.63
2022-12-22T05:57:52.776Z,10.59
2022-12-22T06:00:21.363Z,10.61
2022-12-22T06:02:48.237Z,10.56
2022-12-22T06:05:15.495Z,10.58
2022-12-22T06:07:44.092Z,10.58
2022-12-22T06:10:14.067Z,10.62
2022-12-22T06:12:41.883Z,10.60
2022-12-22T06:15:13.221Z,10.59
2022-12-22T06:17:44.606Z,10.58
2022-12-22T06:20:13.803Z,10.60
2022-12-22T06:22:40.794Z,10.62
2022-12-22T06:25:15.601Z,10.62
2022-12-22T06:27:46.697Z,10.64
2022-12-22T06:30:15.230Z,10.69
2022-12-22T06:32:42.488Z,10.68
2022-12-22T06:35:10.184Z,10.70
2022-12-22T06:37:37.512Z,10.65
2022-12-22T06:40:06.604Z,10.64
2022-12-22T06:42:35.233Z,10.62
2022-12-22T06:45:02.180Z,10.66
2022-12-22T06:47:29.699Z,10.65
2022-12-22T06:49:56.646Z,10.67
2022-12-22T06:52:23.398Z,10.51
2022-12-22T06:54:50.218Z,10.54
2022-12-22T06:57:17.545Z,10.53
2022-12-22T06:59:45.829Z,10.48
2022-12-22T07:02:12.946Z,10.60
2022-12-22T07:04:39.752Z,10.63
2022-12-22T07:07:06.767Z,10.63
2022-12-22T07:09:33.571Z,10.65
2022-12-22T07:12:00.491Z,10.62
2022-12-22T07:14:27.254Z,10.60
2022-12-22T07:16:55.477Z,10.62
2022-12-22T07:19:22.365Z,10.59
2022-12-22T07:23:04.383Z,10.61
2022-12-22T07:25:31.368Z,10.64
2022-12-22T07:27:58.510Z,10.70
2022-12-22T07:30:25.426Z,10.69
2022-12-22T07:32:53.584Z,10.75
2022-12-22T07:35:20.322Z,10.83
2022-12-22T07:37:48.105Z,10.90
2022-12-22T07:40:16.089Z,11.00
2022-12-22T07:42:43.948Z,11.20
2022-12-22T07:45:11.481Z,11.26
2022-12-22T07:47:38.404Z,11.35
2022-12-22T07:50:10.112Z,11.51
2022-12-22T07:52:37.084Z,11.40
2022-12-22T07:55:04.724Z,11.43
2022-12-22T07:57:31.440Z,11.59
2022-12-22T07:59:58.220Z,11.54
2022-12-22T08:02:25.146Z,11.58
2022-12-22T08:04:52.162Z,11.59
2022-12-22T08:07:20.249Z,11.74
2022-12-22T08:09:47.125Z,11.87
2022-12-22T08:12:13.993Z,11.89
2022-12-22T08:14:41.015Z,12.08
2022-12-22T08:17:07.745Z,12.06
2022-12-22T08:19:34.491Z,12.18
2022-12-22T08:22:01.361Z,12.23
2022-12-22T08:24:29.794Z,12.20
2022-12-22T08:27:07.387Z,11.97
2022-12-22T08:29:41.111Z,11.75
2022-12-22T08:32:09.711Z,11.71
2022-12-22T08:35:04.591Z,11.85
2022-12-22T08:37:34.569Z,11.77
2022-12-22T08:40:08.205Z,11.74
2022-12-22T08:42:37.917Z,11.83
2022-12-22T08:45:06.490Z,11.85
2022-12-22T08:47:33.301Z,11.96
2022-12-22T08:50:00.369Z,12.00
2022-12-22T08:52:27.184Z,12.02
2022-12-22T08:54:54.202Z,11.96
2022-12-22T08:57:22.383Z,11.95
2022-12-22T08:59:49.221Z,11.99
2022-12-22T09:02:16.343Z,12.04
2022-12-22T09:04:43.251Z,12.13
2022-12-22T09:07:10.140Z,12.21
2022-12-22T09:09:36.993Z,12.24
2022-12-22T09:12:04.498Z,12.26
2022-12-22T09:14:33.031Z,12.27
2022-12-22T09:17:00.577Z,12.31
2022-12-22T09:19:27.392Z,12.30
2022-12-22T09:21:55.246Z,12.31
2022-12-22T09:24:22.533Z,12.20
2022-12-22T09:26:49.479Z,12.21
2022-12-22T09:29:16.455Z,12.15
2022-12-22T09:31:45.451Z,12.14
2022-12-22T09:34:17.681Z,12.11
2022-12-22T09:36:46.311Z,12.11
2022-12-22T09:39:14.194Z,12.06
2022-12-22T09:41:47.840Z,12.03
2022-12-22T09:44:23.922Z,12.08
2022-12-22T09:46:53.929Z,12.08
2022-12-22T09:49:22.185Z,12.09
2022-12-22T09:51:54.185Z,12.08
2022-12-22T09:54:22.464Z,12.04
2022-12-22T09:56:49.424Z,12.02
2022-12-22T09:59:19.557Z,11.89
2022-12-22T10:02:14.564Z,11.92
2022-12-22T10:04:56.713Z,11.94
2022-12-22T10:07:31.866Z,11.93
2022-12-22T10:10:04.257Z,11.85
2022-12-22T10:12:31.453Z,11.84
2022-12-22T10:14:58.539Z,11.89
2022-12-22T10:17:31.652Z,11.91
2022-12-22T10:20:20.800Z,11.92
2022-12-22T10:22:51.320Z,11.89
2022-12-22T10:25:45.330Z,11.88
2022-12-22T10:28:24.355Z,11.85
2022-12-22T10:31:20.140Z,11.86
2022-12-22T10:33:51.400Z,11.93
2022-12-22T10:36:25.409Z,12.03
2022-12-22T10:38:59.073Z,12.14
2022-12-22T10:41:30.917Z,12.18
2022-12-22T10:44:02.971Z,12.17
2022-12-22T10:46:37.363Z,12.18
2022-12-22T10:49:18.951Z,12.19
2022-12-22T10:51:51.869Z,12.22
2022-12-22T10:54:32.300Z,12.21
2022-12-22T10:57:02.305Z,12.20
2022-12-22T10:59:29.240Z,12.20
2022-12-22T11:02:26.112Z,12.18
2022-12-22T11:05:01.030Z,12.10
2022-12-22T11:07:32.011Z,12.09
2022-12-22T11:09:59.237Z,12.03
2022-12-22T11:12:45.676Z,12.01
2022-12-22T11:15:27.481Z,12.01
2022-12-22T11:18:13.429Z,12.05
2022-12-22T11:21:01.548Z,11.98
2022-12-22T11:23:42.058Z,11.95
2022-12-22T11:26:25.125Z,11.93
2022-12-22T11:29:20.100Z,11.85
2022-12-22T11:32:16.710Z,11.92
2022-12-22T11:35:02.655Z,11.95
2022-12-22T11:37:48.407Z,12.07
2022-12-22T11:40:30.405Z,12.12
2022-12-22T11:43:20.781Z,12.12
2022-12-22T11:46:05.645Z,12.16
2022-12-22T11:48:56.312Z,12.21
2022-12-22T11:51:48.931Z,12.28
2022-12-22T11:54:44.688Z,12.32
2022-12-22T11:57:32.557Z,12.34
2022-12-22T12:00:09.517Z,12.35
2022-12-22T12:03:37.043Z,12.37
2022-12-22T12:06:33.779Z,12.39
2022-12-22T12:09:27.858Z,12.41
2022-12-22T12:12:09.416Z,12.42
2022-12-22T12:14:51.378Z,12.45
2022-12-22T12:17:38.499Z,12.47
2022-12-22T12:20:27.763Z,12.50
2022-12-22T12:23:19.603Z,12.64
2022-12-22T12:26:00.553Z,12.60
2022-12-22T12:28:47.285Z,12.51
2022-12-22T12:31:24.432Z,12.49
2022-12-22T12:33:58.061Z,12.46
2022-12-22T12:36:40.116Z,12.46
2022-12-22T12:39:18.437Z,12.46
2022-12-22T12:42:01.322Z,12.57
2022-12-22T12:44:34.865Z,12.86
2022-12-22T12:47:23.724Z,12.52
2022-12-22T12:50:34.787Z,13.03
2022-12-22T12:53:09.154Z,13.15
2022-12-22T12:56:06.598Z,12.79
2022-12-22T12:59:03.721Z,12.58
2022-12-22T13:01:58.717Z,12.57
2022-12-22T13:05:26.280Z,12.76
2022-12-22T13:08:19.689Z,12.82
2022-12-22T13:11:04.691Z,12.72
2022-12-22T13:13:50.538Z,12.49
2022-12-22T13:16:36.736Z,12.37
2022-12-22T13:19:18.962Z,12.25
2022-12-22T13:21:54.951Z,12.19
2022-12-22T13:24:29.894Z,12.18
2022-12-22T13:27:05.527Z,12.09
2022-12-22T13:33:38.864Z,11.99
2022-12-22T13:36:15.643Z,12.00
2022-12-22T13:38:43.162Z,11.99
2022-12-22T13:41:24.710Z,11.98
2022-12-22T13:44:02.532Z,12.00
2022-12-22T13:46:32.530Z,12.05
2022-12-22T13:48:59.716Z,12.09
2022-12-22T13:51:30.425Z,12.08
2022-12-22T13:54:12.365Z,12.19
2022-12-22T13:56:45.590Z,12.12
2022-12-22T13:59:28.316Z,12.09
2022-12-22T14:02:00.239Z,12.10
2022-12-22T14:04:28.283Z,12.13
2022-12-22T14:06:55.581Z,12.11
2022-12-22T14:09:25.067Z,12.03
2022-12-22T14:12:03.604Z,12.04
2022-12-22T14:14:36.175Z,12.01
2022-12-22T14:17:04.519Z,12.00
2022-12-22T14:19:37.138Z,11.95
2022-12-22T14:22:11.139Z,11.93
2022-12-22T14:24:46.004Z,11.93
2022-12-22T14:27:26.607Z,11.95
2022-12-22T14:29:54.552Z,11.99
2022-12-22T14:32:42.818Z,12.03
2022-12-22T14:35:25.734Z,12.04
2022-12-22T14:37:55.832Z,12.02
2022-12-22T14:40:31.916Z,12.05
2022-12-22T14:43:03.900Z,12.03
2022-12-22T14:45:31.346Z,12.01
2022-12-22T14:47:58.145Z,11.87
2022-12-22T14:50:28.725Z,11.92
2022-12-22T14:53:01.907Z,11.83
2022-12-22T14:56:27.349Z,11.87
2022-12-22T14:59:21.716Z,11.78
2022-12-22T15:02:22.632Z,11.84
2022-12-22T15:08:38.783Z,11.80
2022-12-22T15:11:45.207Z,11.77
2022-12-22T15:14:20.153Z,11.67
2022-12-22T15:16:49.996Z,11.67
2022-12-22T15:19:26.316Z,11.57
2022-12-22T15:21:55.188Z,11.54
2022-12-22T15:24:58.075Z,11.51
2022-12-22T15:27:44.709Z,11.54
2022-12-22T15:30:19.876Z,11.49
2022-12-22T15:32:47.393Z,11.37
2022-12-22T15:35:24.512Z,11.30
2022-12-22T15:37:51.920Z,11.17
2022-12-22T15:40:22.253Z,11.16
2022-12-22T15:42:51.019Z,11.23
2022-12-22T15:45:23.425Z,11.18
2022-12-22T15:47:54.539Z,11.22
2022-12-22T15:50:27.240Z,11.27
2022-12-22T15:52:58.817Z,11.27
2022-12-22T15:55:26.883Z,11.24
2022-12-22T15:57:59.127Z,11.28
2022-12-22T16:00:29.190Z,11.22
2022-12-22T16:02:58.239Z,11.27
2022-12-22T16:05:25.338Z,11.33
2022-12-22T16:07:52.334Z,11.35
2022-12-22T16:10:25.288Z,11.38
2022-12-22T16:12:54.428Z,11.39
2022-12-22T16:15:22.484Z,11.44
2022-12-22T16:17:52.960Z,11.44
2022-12-22T16:20:38.105Z,11.45
2022-12-22T16:23:12.983Z,11.44
2022-12-22T16:25:40.379Z,11.30
2022-12-22T16:28:12.051Z,11.37
2022-12-22T16:30:43.489Z,11.41
2022-12-22T16:33:12.613Z,11.38
2022-12-22T16:35:40.543Z,11.31
2022-12-22T16:38:10.616Z,11.33
2022-12-22T16:40:46.370Z,11.38
2022-12-22T16:46:13.840Z,11.24
2022-12-22T16:48:45.963Z,11.22
2022-12-22T16:51:19.194Z,11.21
2022-12-22T16:53:46.011Z,11.19
2022-12-22T16:56:18.756Z,11.14
2022-12-22T16:58:52.040Z,11.12
2022-12-22T17:01:31.622Z,11.01
2022-12-22T17:04:09.208Z,11.00
2022-12-22T17:06:37.113Z,10.99
2022-12-22T17:09:11.051Z,10.96
2022-12-22T17:11:37.970Z,10.98
2022-12-22T17:14:10.518Z,10.91
2022-12-22T17:16:40.410Z,10.94
2022-12-22T17:19:11.114Z,10.92
2022-12-22T17:21:38.470Z,10.90
2022-12-22T17:24:05.951Z,10.86
2022-12-22T17:26:36.588Z,10.87
2022-12-22T17:29:04.971Z,10.88
2022-12-22T17:31:31.859Z,10.85
2022-12-22T17:34:15.244Z,10.79
2022-12-22T17:36:44.761Z,10.74
2022-12-22T17:39:15.065Z,10.72
2022-12-22T17:41:49.078Z,10.71
2022-12-22T17:44:50.993Z,10.69
2022-12-22T17:47:42.141Z,10.65
2022-12-22T17:50:15.646Z,10.60
2022-12-22T17:52:44.922Z,10.58
2022-12-22T17:56:06.052Z,10.59
2022-12-22T17:59:01.474Z,10.56
2022-12-22T18:04:19.228Z,10.53
2022-12-22T18:06:48.255Z,10.56
2022-12-22T18:09:39.006Z,10.59
2022-12-22T18:12:24.442Z,10.55
2022-12-22T18:14:53.257Z,10.49
2022-12-22T18:17:36.105Z,10.55
2022-12-22T18:20:06.195Z,10.67
2022-12-22T18:22:34.915Z,10.71
2022-12-22T18:25:02.668Z,10.78
2022-12-22T18:27:31.333Z,10.74
2022-12-22T18:29:59.201Z,10.71
2022-12-22T18:32:28.102Z,10.71
2022-12-22T18:34:57.157Z,10.66
2022-12-22T18:37:28.139Z,10.63
2022-12-22T18:39:58.296Z,10.68
2022-12-22T18:42:25.440Z,10.62
2022-12-22T18:44:54.303Z,10.64
2022-12-22T18:47:21.482Z,10.68
2022-12-22T18:49:48.562Z,10.65
2022-12-22T18:52:19.536Z,10.67
2022-12-22T18:54:47.102Z,10.70
2022-12-22T18:57:18.543Z,10.77
2022-12-22T18:59:46.331Z,10.80
2022-12-22T19:02:23.009Z,10.80
2022-12-22T19:04:50.918Z,10.80
2022-12-22T19:07:20.857Z,10.89
2022-12-22T19:09:48.673Z,10.89
2022-12-22T19:12:20.723Z,10.85
2022-12-22T19:14:54.667Z,10.81
2022-12-22T19:17:26.718Z,10.79
2022-12-22T19:19:53.464Z,10.80
2022-12-22T19:22:23.619Z,10.86
2022-12-22T19:32:42.375Z,10.97
2022-12-22T19:35:20.276Z,10.95
2022-12-22T19:38:20.848Z,11.00
2022-12-22T19:40:52.251Z,10.94
2022-12-22T19:43:20.116Z,10.92
2022-12-22T19:49:40.437Z,10.80
2022-12-22T19:52:09.650Z,10.76
2022-12-22T19:54:36.858Z,10.72
2022-12-22T19:57:08.427Z,10.72
2022-12-22T20:00:04.690Z,10.63
2022-12-22T20:04:34.038Z,10.57
2022-12-22T20:08:00.231Z,10.50
2022-12-22T20:10:35.963Z,10.44
2022-12-22T20:13:15.352Z,10.36
2022-12-22T20:15:48.150Z,10.38
2022-12-22T20:18:20.099Z,10.37
2022-12-22T20:20:57.516Z,10.36
2022-12-22T20:23:30.387Z,10.32
2022-12-22T20:26:06.027Z,10.30
2022-12-22T20:28:36.936Z,10.27
2022-12-22T20:31:06.186Z,10.25
2022-12-22T20:33:34.812Z,10.22
2022-12-22T20:40:33.891Z,10.13
2022-12-22T20:43:01.746Z,10.14
2022-12-22T20:45:31.428Z,10.18
2022-12-22T20:47:59.817Z,10.19
2022-12-22T20:50:30.754Z,10.30
2022-12-22T20:52:59.085Z,10.32
2022-12-22T20:55:28.499Z,10.28
2022-12-22T20:57:56.673Z,10.30
2022-12-22T21:00:27.847Z,10.35
2022-12-22T21:02:55.646Z,10.40
2022-12-22T21:05:25.813Z,10.43
2022-12-22T21:07:52.999Z,10.41
2022-12-22T21:10:24.480Z,10.40
2022-12-22T21:12:55.737Z,10.39
2022-12-22T21:15:26.364Z,10.37
2022-12-22T21:17:58.774Z,10.37
2022-12-22T21:20:33.854Z,10.36
2022-12-22T21:23:00.895Z,10.34
2022-12-22T21:25:27.804Z,10.34
2022-12-22T21:27:56.882Z,10.44
2022-12-22T21:30:26.547Z,10.38
2022-12-22T21:32:56.921Z,10.35
2022-12-22T21:35:27.550Z,10.34
2022-12-22T21:37:57.815Z,10.28
2022-12-22T21:40:27.580Z,10.22
2022-12-22T21:42:56.635Z,10.17
2022-12-22T21:45:28.063Z,10.17
2022-12-22T21:47:55.372Z,10.14
2022-12-22T21:50:26.270Z,10.12
2022-12-22T21:52:53.660Z,10.11
2022-12-22T21:55:26.117Z,10.04
2022-12-22T21:57:53.511Z,10.01
2022-12-22T22:00:27.378Z,9.89
2022-12-22T22:02:56.345Z,9.83
2022-12-22T22:05:29.013Z,9.79
2022-12-22T22:07:58.342Z,9.79
2022-12-22T22:10:29.634Z,9.78
2022-12-22T22:12:56.970Z,9.78
2022-12-22T22:16:11.148Z,9.80
2022-12-22T22:18:39.768Z,9.81
2022-12-22T22:21:10.868Z,9.84
2022-12-22T22:23:38.189Z,9.88
2022-12-22T22:26:06.385Z,9.86
2022-12-22T22:28:35.962Z,9.91
2022-12-22T22:31:12.679Z,9.89
2022-12-22T22:33:39.704Z,9.94
2022-12-22T22:36:07.882Z,9.98
2022-12-22T22:38:35.537Z,10.00
2022-12-22T22:41:02.804Z,10.09
2022-12-22T22:43:29.765Z,10.14
2022-12-22T22:45:56.605Z,10.07
2022-12-22T22:48:24.887Z,10.07
2022-12-22T22:50:51.663Z,10.08
2022-12-22T22:53:18.848Z,10.01
2022-12-22T22:55:45.632Z,10.01
2022-12-22T22:58:12.675Z,9.99
2022-12-22T23:00:40.122Z,9.97
2022-12-22T23:03:07.065Z,9.95
2022-12-22T23:05:36.340Z,9.87
2022-12-22T23:08:03.507Z,9.84
2022-12-22T23:10:32.648Z,9.83
2022-12-22T23:13:01.879Z,9.84
2022-12-22T23:15:28.636Z,9.80
2022-12-22T23:17:55.592Z,9.84
2022-12-22T23:20:22.393Z,9.80
2022-12-22T23:22:50.759Z,9.78
2022-12-22T23:25:18.329Z,9.77
2022-12-22T23:27:45.383Z,9.75
2022-12-22T23:30:13.712Z,9.73
2022-12-22T23:32:40.726Z,9.68
2022-12-22T23:35:08.377Z,9.66
2022-12-22T23:37:35.343Z,9.63
2022-12-22T23:40:41.895Z,9.61
2022-12-22T23:42:56.596Z,9.59
2022-12-22T23:45:24.091Z,9.53
2022-12-22T23:47:50.820Z,9.53
2022-12-22T23:50:17.785Z,9.48
2022-12-22T23:52:49.149Z,9.44
2022-12-22T23:55:18.389Z,9.52
2022-12-22T23:57:45.835Z,9.53
